createdAt,value
2022-08-17T00:00:43.100Z,21.53
2022-08-17T00:03:13.649Z,21.50
2022-08-17T00:05:48.502Z,21.48
2022-08-17T00:08:21.532Z,21.45
2022-08-17T00:10:51.805Z,21.41
2022-08-17T00:13:24.700Z,21.38
2022-08-17T00:15:55.892Z,21.34
2022-08-17T00:19:01.433Z,21.31
2022-08-17T00:21:13.764Z,21.28
2022-08-17T00:23:48.961Z,21.25
2022-08-17T00:26:43.671Z,21.23
2022-08-17T00:29:08.360Z,21.22
2022-08-17T00:31:37.417Z,21.22
2022-08-17T00:34:08.754Z,21.22
2022-08-17T00:36:37.458Z,21.21
2022-08-17T00:39:07.347Z,21.23
2022-08-17T00:41:35.886Z,21.23
2022-08-17T00:44:06.883Z,21.22
2022-08-17T00:46:39.336Z,21.27
2022-08-17T00:49:09.761Z,21.27
2022-08-17T00:51:45.256Z,21.23
2022-08-17T00:54:19.958Z,21.18
2022-08-17T00:56:53.765Z,21.14
2022-08-17T00:59:26.823Z,21.11
2022-08-17T01:01:55.621Z,21.10
2022-08-17T01:04:24.781Z,21.09
2022-08-17T01:06:54.328Z,21.10
2022-08-17T01:09:24.259Z,21.11
2022-08-17T01:11:53.017Z,21.15
2022-08-17T01:14:22.384Z,21.16
2022-08-17T01:16:53.143Z,21.16
2022-08-17T01:19:24.945Z,21.17
2022-08-17T01:22:00.280Z,21.15
2022-08-17T01:24:31.103Z,21.17
2022-08-17T01:27:02.713Z,21.17
2022-08-17T01:29:42.392Z,21.17
2022-08-17T01:32:11.313Z,21.17
2022-08-17T01:34:43.353Z,21.17
2022-08-17T01:37:12.844Z,21.14
2022-08-17T01:39:45.970Z,21.12
2022-08-17T01:42:27.521Z,21.08
2022-08-17T01:45:02.992Z,21.06
2022-08-17T01:47:31.837Z,21.05
2022-08-17T01:50:13.219Z,21.00
2022-08-17T01:52:42.433Z,20.98
2022-08-17T01:55:14.021Z,20.96
2022-08-17T01:57:45.484Z,20.95
2022-08-17T02:00:15.523Z,20.93
2022-08-17T02:02:45.917Z,20.90
2022-08-17T02:05:15.093Z,20.89
2022-08-17T02:08:00.572Z,20.87
2022-08-17T02:10:33.933Z,20.82
2022-08-17T02:13:04.661Z,20.80
2022-08-17T02:15:34.653Z,20.75
2022-08-17T02:18:04.157Z,20.74
2022-08-17T02:20:41.513Z,20.71
2022-08-17T02:23:13.239Z,20.65
2022-08-17T02:25:47.670Z,20.62
2022-08-17T02:28:16.677Z,20.57
2022-08-17T02:31:01.816Z,20.52
2022-08-17T02:33:42.816Z,20.50
2022-08-17T02:36:14.005Z,20.47
2022-08-17T02:38:42.874Z,20.46
2022-08-17T02:41:13.029Z,20.43
2022-08-17T02:43:41.813Z,20.40
2022-08-17T02:46:12.801Z,20.35
2022-08-17T02:48:41.233Z,20.33
2022-08-17T02:51:09.842Z,20.29
2022-08-17T02:53:38.329Z,20.26
2022-08-17T02:56:07.183Z,20.27
2022-08-17T02:58:36.959Z,20.26
2022-08-17T03:01:07.244Z,20.23
2022-08-17T03:03:36.810Z,20.23
2022-08-17T03:06:07.601Z,20.21
2022-08-17T03:08:37.511Z,20.22
2022-08-17T03:11:06.395Z,20.21
2022-08-17T03:13:36.352Z,20.20
2022-08-17T03:16:05.217Z,20.18
2022-08-17T03:18:33.708Z,20.17
2022-08-17T03:21:04.488Z,20.13
2022-08-17T03:23:33.781Z,20.07
2022-08-17T03:26:02.269Z,20.10
2022-08-17T03:28:30.814Z,20.07
2022-08-17T03:31:00.807Z,20.05
2022-08-17T03:33:29.241Z,20.04
2022-08-17T03:35:58.215Z,20.04
2022-08-17T03:38:27.208Z,20.06
2022-08-17T03:40:59.686Z,20.09
2022-08-17T03:43:30.502Z,20.10
2022-08-17T03:46:34.660Z,20.12
2022-08-17T03:49:22.649Z,20.14
2022-08-17T03:52:08.740Z,20.16
2022-08-17T03:54:55.541Z,20.17
2022-08-17T03:57:24.654Z,20.20
2022-08-17T03:59:53.537Z,20.19
2022-08-17T04:02:28.230Z,20.18
2022-08-17T04:04:56.822Z,20.21
2022-08-17T04:07:30.093Z,20.21
2022-08-17T04:09:59.470Z,20.22
2022-08-17T04:12:30.959Z,20.24
2022-08-17T04:14:59.840Z,20.26
2022-08-17T04:17:30.740Z,20.28
2022-08-17T04:19:59.309Z,20.29
2022-08-17T04:22:30.626Z,20.29
2022-08-17T04:25:15.998Z,20.32
2022-08-17T04:27:44.668Z,20.33
2022-08-17T04:30:14.199Z,20.34
2022-08-17T04:33:10.877Z,20.33
2022-08-17T04:35:42.221Z,20.33
2022-08-17T04:38:13.069Z,20.35
2022-08-17T04:40:59.093Z,20.36
2022-08-17T04:43:28.628Z,20.36
2022-08-17T04:45:58.856Z,20.34
2022-08-17T04:48:36.216Z,20.33
2022-08-17T04:51:09.924Z,20.32
2022-08-17T04:53:40.448Z,20.31
2022-08-17T04:56:16.205Z,20.31
2022-08-17T04:58:50.083Z,20.33
2022-08-17T05:01:23.236Z,20.34
2022-08-17T05:03:54.809Z,20.39
2022-08-17T05:06:23.780Z,20.40
2022-08-17T05:08:52.708Z,20.44
2022-08-17T05:11:21.447Z,20.45
2022-08-17T05:13:51.056Z,20.50
2022-08-17T05:16:20.421Z,20.54
2022-08-17T05:18:49.287Z,20.57
2022-08-17T05:21:19.860Z,20.61
2022-08-17T05:23:53.245Z,20.64
2022-08-17T05:26:26.963Z,20.69
2022-08-17T05:28:58.518Z,20.74
2022-08-17T05:31:29.670Z,20.79
2022-08-17T05:33:58.340Z,20.83
2022-08-17T05:36:43.093Z,20.87
2022-08-17T05:39:16.695Z,20.95
2022-08-17T05:41:49.090Z,20.99
2022-08-17T05:44:18.177Z,21.03
2022-08-17T05:46:51.837Z,21.06
2022-08-17T05:49:25.914Z,21.09
2022-08-17T05:52:17.150Z,21.14
2022-08-17T05:55:01.502Z,21.22
2022-08-17T05:57:56.578Z,21.27
2022-08-17T06:00:30.833Z,21.33
2022-08-17T06:03:23.471Z,21.41
2022-08-17T06:06:07.126Z,21.55
2022-08-17T06:08:48.124Z,21.76
2022-08-17T06:11:32.429Z,21.91
2022-08-17T06:14:23.289Z,22.10
2022-08-17T06:16:56.681Z,22.17
2022-08-17T06:19:34.519Z,22.25
2022-08-17T06:22:05.822Z,22.30
2022-08-17T06:24:39.932Z,22.36
2022-08-17T06:27:26.370Z,22.40
2022-08-17T06:29:59.029Z,22.45
2022-08-17T06:32:27.884Z,22.49
2022-08-17T06:34:57.433Z,22.53
2022-08-17T06:38:00.355Z,22.57
2022-08-17T06:40:48.479Z,22.57
2022-08-17T06:43:32.645Z,22.65
2022-08-17T06:46:07.517Z,22.70
2022-08-17T06:48:44.556Z,22.76
2022-08-17T06:51:23.847Z,22.83
2022-08-17T06:54:01.081Z,22.87
2022-08-17T06:56:53.408Z,22.92
2022-08-17T06:59:54.501Z,22.99
2022-08-17T07:02:28.931Z,23.07
2022-08-17T07:05:08.828Z,23.11
2022-08-17T07:07:57.590Z,23.17
2022-08-17T07:10:28.590Z,23.25
2022-08-17T07:13:04.173Z,23.46
2022-08-17T07:15:42.784Z,23.58
2022-08-17T07:18:11.849Z,23.69
2022-08-17T07:20:45.840Z,23.78
2022-08-17T07:23:21.147Z,23.84
2022-08-17T07:25:51.009Z,23.89
2022-08-17T07:28:24.533Z,23.93
2022-08-17T07:30:55.471Z,23.96
2022-08-17T07:33:26.888Z,24.01
2022-08-17T07:35:58.127Z,24.05
2022-08-17T07:38:29.318Z,24.13
2022-08-17T07:41:05.376Z,24.19
2022-08-17T07:43:36.361Z,24.26
2022-08-17T07:46:33.461Z,24.33
2022-08-17T07:49:22.565Z,24.42
2022-08-17T07:52:48.436Z,24.49
2022-08-17T07:54:52.366Z,24.61
2022-08-17T07:57:36.450Z,24.72
2022-08-17T08:00:31.403Z,24.83
2022-08-17T08:03:15.542Z,25.01
2022-08-17T08:05:57.372Z,25.10
2022-08-17T08:08:29.619Z,25.17
2022-08-17T08:11:01.947Z,25.17
2022-08-17T08:13:33.276Z,25.21
2022-08-17T08:16:25.004Z,25.28
2022-08-17T08:18:58.365Z,25.31
2022-08-17T08:21:34.479Z,25.37
2022-08-17T08:24:24.507Z,25.40
2022-08-17T08:27:12.772Z,25.44
2022-08-17T08:29:50.941Z,25.45
2022-08-17T08:32:23.148Z,25.50
2022-08-17T08:35:03.870Z,25.61
2022-08-17T08:37:43.470Z,25.70
2022-08-17T08:40:36.308Z,25.76
2022-08-17T08:43:15.156Z,25.80
2022-08-17T08:45:50.013Z,25.80
2022-08-17T08:48:53.464Z,25.87
2022-08-17T08:51:39.938Z,25.96
2022-08-17T08:54:26.597Z,25.99
2022-08-17T08:57:23.218Z,26.05
2022-08-17T09:00:00.489Z,26.10
2022-08-17T09:02:48.015Z,26.15
2022-08-17T09:05:30.429Z,26.19
2022-08-17T09:08:10.614Z,26.25
2022-08-17T09:11:00.716Z,26.33
2022-08-17T09:13:38.197Z,26.40
2022-08-17T09:16:15.257Z,26.46
2022-08-17T09:19:01.661Z,26.52
2022-08-17T09:21:48.077Z,26.61
2022-08-17T09:24:25.135Z,26.79
2022-08-17T09:26:58.911Z,26.88
2022-08-17T09:29:35.227Z,26.96
2022-08-17T09:32:10.763Z,27.04
2022-08-17T09:34:44.680Z,27.22
2022-08-17T09:37:23.874Z,27.40
2022-08-17T09:40:02.504Z,27.44
2022-08-17T09:42:37.063Z,27.51
2022-08-17T09:45:18.151Z,27.61
2022-08-17T09:47:51.323Z,27.86
2022-08-17T09:51:03.586Z,28.06
2022-08-17T09:53:13.049Z,28.14
2022-08-17T09:56:03.530Z,28.20
2022-08-17T09:58:47.678Z,28.28
2022-08-17T10:01:27.518Z,28.43
2022-08-17T10:04:26.032Z,28.55
2022-08-17T10:07:04.571Z,28.64
2022-08-17T10:09:45.810Z,28.66
2022-08-17T10:12:30.079Z,28.68
2022-08-17T10:15:15.579Z,28.70
2022-08-17T10:18:07.714Z,28.73
2022-08-17T10:21:13.313Z,28.81
2022-08-17T10:24:01.983Z,29.02
2022-08-17T10:26:46.235Z,29.39
2022-08-17T10:29:48.355Z,29.95
2022-08-17T10:32:32.143Z,30.36
2022-08-17T10:35:36.094Z,30.77
2022-08-17T10:38:39.889Z,31.01
2022-08-17T10:41:24.118Z,31.05
2022-08-17T10:44:38.494Z,31.27
2022-08-17T10:46:59.286Z,31.44
2022-08-17T10:49:33.135Z,31.72
2022-08-17T10:52:03.556Z,31.72
2022-08-17T10:54:47.655Z,31.58
2022-08-17T10:57:38.904Z,31.48
2022-08-17T11:00:15.478Z,31.69
2022-08-17T11:02:50.443Z,31.69
2022-08-17T11:05:44.401Z,31.95
2022-08-17T11:08:51.081Z,32.19
2022-08-17T11:11:35.851Z,32.11
2022-08-17T11:14:26.413Z,32.37
2022-08-17T11:17:13.021Z,32.20
2022-08-17T11:20:20.406Z,32.21
2022-08-17T11:23:20.169Z,32.49
2022-08-17T11:25:54.221Z,32.39
2022-08-17T11:28:28.058Z,32.12
2022-08-17T11:31:00.413Z,31.86
2022-08-17T11:33:58.882Z,31.75
2022-08-17T11:36:52.128Z,31.73
2022-08-17T11:39:42.721Z,31.78
2022-08-17T11:42:26.439Z,31.73
2022-08-17T11:44:59.049Z,32.29
2022-08-17T11:48:16.100Z,32.89
2022-08-17T11:51:06.841Z,33.42
2022-08-17T11:54:28.955Z,33.16
2022-08-17T11:56:51.124Z,32.70
2022-08-17T11:59:54.364Z,32.32
2022-08-17T12:02:39.002Z,32.47
2022-08-17T12:05:32.553Z,32.70
2022-08-17T12:08:11.918Z,32.96
2022-08-17T12:10:53.918Z,32.72
2022-08-17T12:13:30.485Z,33.19
2022-08-17T12:16:08.298Z,32.83
2022-08-17T12:18:42.040Z,32.77
2022-08-17T12:21:26.381Z,32.77
2022-08-17T12:24:00.213Z,32.66
2022-08-17T12:26:33.056Z,32.42
2022-08-17T12:29:05.906Z,32.59
2022-08-17T12:31:44.354Z,32.51
2022-08-17T12:34:17.135Z,32.30
2022-08-17T12:36:47.342Z,32.26
2022-08-17T12:39:21.766Z,32.16
2022-08-17T12:42:01.938Z,32.02
2022-08-17T12:44:35.166Z,31.98
2022-08-17T12:47:11.062Z,31.99
2022-08-17T12:49:42.259Z,31.98
2022-08-17T12:52:15.290Z,31.96
2022-08-17T12:54:50.700Z,32.46
2022-08-17T12:57:23.496Z,33.12
2022-08-17T12:59:59.523Z,33.75
2022-08-17T13:02:42.654Z,34.13
2022-08-17T13:05:21.576Z,34.45
2022-08-17T13:07:50.815Z,34.23
2022-08-17T13:10:25.526Z,33.63
2022-08-17T13:12:58.104Z,33.47
2022-08-17T13:15:33.893Z,33.17
2022-08-17T13:18:07.447Z,32.87
2022-08-17T13:20:36.948Z,32.73
2022-08-17T13:23:12.513Z,32.52
2022-08-17T13:25:41.351Z,32.33
2022-08-17T13:28:35.657Z,32.20
2022-08-17T13:31:33.007Z,32.09
2022-08-17T13:34:19.118Z,32.42
2022-08-17T13:36:48.889Z,32.64
2022-08-17T13:39:22.844Z,32.80
2022-08-17T13:41:53.991Z,32.88
2022-08-17T13:44:34.332Z,32.95
2022-08-17T13:47:05.746Z,33.09
2022-08-17T13:49:41.729Z,32.93
2022-08-17T13:52:37.923Z,32.69
2022-08-17T13:55:10.236Z,32.49
2022-08-17T13:57:38.832Z,32.43
2022-08-17T14:00:13.967Z,32.52
2022-08-17T14:02:44.042Z,32.31
2022-08-17T14:05:12.650Z,32.13
2022-08-17T14:07:41.317Z,32.11
2022-08-17T14:10:13.966Z,32.23
2022-08-17T14:12:44.648Z,32.37
2022-08-17T14:15:15.441Z,32.28
2022-08-17T14:17:45.318Z,32.48
2022-08-17T14:20:14.952Z,32.51
2022-08-17T14:22:46.614Z,32.48
2022-08-17T14:25:18.695Z,32.42
2022-08-17T14:27:52.942Z,32.48
2022-08-17T14:30:29.141Z,32.49
2022-08-17T14:33:02.090Z,32.24
2022-08-17T14:35:31.160Z,32.36
2022-08-17T14:37:59.688Z,32.37
2022-08-17T14:40:28.156Z,32.44
2022-08-17T14:42:58.477Z,32.56
2022-08-17T14:45:32.325Z,32.64
2022-08-17T14:48:07.951Z,32.65
2022-08-17T14:50:38.358Z,32.53
2022-08-17T14:53:08.784Z,32.29
2022-08-17T14:55:39.948Z,32.12
2022-08-17T14:58:09.020Z,31.89
2022-08-17T15:00:39.444Z,31.71
2022-08-17T15:03:11.470Z,31.57
2022-08-17T15:05:40.693Z,31.54
2022-08-17T15:08:09.311Z,31.57
2022-08-17T15:10:39.056Z,31.61
2022-08-17T15:13:18.168Z,31.62
2022-08-17T15:15:46.819Z,31.69
2022-08-17T15:18:17.508Z,31.66
2022-08-17T15:20:48.657Z,31.57
2022-08-17T15:23:19.977Z,31.64
2022-08-17T15:25:50.489Z,31.70
2022-08-17T15:28:20.597Z,31.67
2022-08-17T15:30:49.321Z,31.56
2022-08-17T15:33:22.324Z,31.49
2022-08-17T15:35:53.365Z,31.53
2022-08-17T15:38:23.531Z,31.56
2022-08-17T15:40:53.879Z,31.60
2022-08-17T15:43:27.975Z,31.62
2022-08-17T15:46:00.740Z,31.70
2022-08-17T15:48:42.210Z,31.86
2022-08-17T15:51:13.348Z,31.90
2022-08-17T15:53:43.649Z,31.98
2022-08-17T15:56:15.181Z,31.93
2022-08-17T15:58:46.742Z,32.00
2022-08-17T16:01:18.687Z,32.04
2022-08-17T16:04:26.370Z,31.93
2022-08-17T16:06:54.051Z,31.80
2022-08-17T16:09:23.056Z,31.74
2022-08-17T16:11:52.197Z,31.77
2022-08-17T16:14:24.124Z,31.74
2022-08-17T16:16:52.792Z,31.76
2022-08-17T16:19:25.291Z,31.70
2022-08-17T16:21:53.800Z,31.58
2022-08-17T16:24:22.358Z,31.44
2022-08-17T16:26:50.908Z,31.34
2022-08-17T16:29:19.558Z,31.28
2022-08-17T16:31:48.231Z,31.29
2022-08-17T16:34:18.891Z,31.21
2022-08-17T16:36:55.540Z,31.15
2022-08-17T16:39:29.082Z,31.05
2022-08-17T16:41:58.439Z,30.97
2022-08-17T16:44:29.046Z,30.93
2022-08-17T16:46:58.504Z,30.89
2022-08-17T16:49:36.694Z,30.85
2022-08-17T16:52:11.273Z,30.80
2022-08-17T16:54:43.731Z,30.78
2022-08-17T16:57:13.491Z,30.74
2022-08-17T16:59:47.767Z,30.67
2022-08-17T17:02:18.368Z,30.63
2022-08-17T17:04:53.179Z,30.57
2022-08-17T17:07:38.887Z,30.51
2022-08-17T17:10:11.937Z,30.44
2022-08-17T17:13:26.800Z,30.38
2022-08-17T17:28:56.782Z,29.91
2022-08-17T17:31:29.525Z,29.82
2022-08-17T17:34:00.901Z,29.72
2022-08-17T17:36:35.711Z,29.61
2022-08-17T17:39:07.492Z,29.54
2022-08-17T17:41:47.179Z,29.44
2022-08-17T17:44:19.703Z,29.35
2022-08-17T17:46:54.308Z,29.28
2022-08-17T17:49:23.295Z,29.22
2022-08-17T17:52:10.003Z,29.12
2022-08-17T17:55:03.179Z,29.06
2022-08-17T17:57:45.554Z,28.97
2022-08-17T18:00:17.954Z,28.90
2022-08-17T18:03:07.918Z,28.81
2022-08-17T18:05:49.958Z,28.73
2022-08-17T18:08:32.244Z,28.68
2022-08-17T18:11:24.129Z,28.56
2022-08-17T18:14:08.987Z,28.52
2022-08-17T18:16:37.637Z,28.44
2022-08-17T18:19:07.138Z,28.37
2022-08-17T18:21:38.205Z,28.32
2022-08-17T18:24:10.485Z,28.26
2022-08-17T18:26:47.970Z,28.17
2022-08-17T18:29:31.383Z,28.13
2022-08-17T18:32:23.605Z,28.05
2022-08-17T18:34:54.400Z,27.99
2022-08-17T18:37:47.718Z,27.92
2022-08-17T18:40:38.216Z,27.88
2022-08-17T18:43:13.396Z,27.83
2022-08-17T18:45:47.904Z,27.80
2022-08-17T18:48:23.666Z,27.76
2022-08-17T18:50:54.561Z,27.73
2022-08-17T18:53:33.143Z,27.69
2022-08-17T18:56:30.935Z,27.64
2022-08-17T18:59:25.187Z,27.58
2022-08-17T19:02:32.492Z,27.54
2022-08-17T19:05:13.331Z,27.48
2022-08-17T19:07:42.771Z,27.45
2022-08-17T19:10:24.552Z,27.39
2022-08-17T19:13:00.204Z,27.33
2022-08-17T19:15:35.169Z,27.27
2022-08-17T19:18:15.704Z,27.23
2022-08-17T19:20:48.840Z,27.20
2022-08-17T19:23:24.925Z,27.16
2022-08-17T19:25:58.431Z,27.12
2022-08-17T19:28:30.686Z,27.08
2022-08-17T19:31:03.069Z,27.06
2022-08-17T19:33:33.065Z,27.04
2022-08-17T19:36:09.186Z,27.01
2022-08-17T19:38:45.775Z,26.96
2022-08-17T19:41:23.777Z,26.94
2022-08-17T19:44:14.249Z,26.89
2022-08-17T19:46:56.163Z,26.85
2022-08-17T19:49:41.458Z,26.82
2022-08-17T19:52:24.148Z,26.80
2022-08-17T19:54:59.526Z,26.76
2022-08-17T19:57:49.100Z,26.73
2022-08-17T20:00:19.420Z,26.69
2022-08-17T20:02:55.015Z,26.67
2022-08-17T20:05:37.277Z,26.62
2022-08-17T20:08:21.878Z,26.58
2022-08-17T20:10:55.372Z,26.53
2022-08-17T20:13:33.515Z,26.52
2022-08-17T20:16:03.149Z,26.48
2022-08-17T20:18:37.814Z,26.45
2022-08-17T20:21:19.970Z,26.43
2022-08-17T20:23:57.156Z,26.38
2022-08-17T20:26:29.274Z,26.36
2022-08-17T20:29:37.423Z,26.32
2022-08-17T20:32:26.534Z,26.28
2022-08-17T20:35:19.267Z,26.27
2022-08-17T20:37:59.049Z,26.24
2022-08-17T20:40:34.689Z,26.23
2022-08-17T20:43:37.021Z,26.23
2022-08-17T20:46:13.942Z,26.20
2022-08-17T20:48:45.823Z,26.20
2022-08-17T20:51:24.113Z,26.17
2022-08-17T20:54:36.634Z,26.18
2022-08-17T20:57:06.088Z,26.19
2022-08-17T21:00:02.793Z,26.18
2022-08-17T21:02:32.345Z,26.16
2022-08-17T21:05:30.237Z,26.17
2022-08-17T21:08:02.516Z,26.19
2022-08-17T21:10:37.601Z,26.24
2022-08-17T21:13:32.968Z,26.26
2022-08-17T21:16:08.783Z,26.25
2022-08-17T21:18:42.834Z,26.21
2022-08-17T21:21:24.026Z,26.17
2022-08-17T21:24:07.954Z,26.10
2022-08-17T21:26:51.093Z,26.03
2022-08-17T21:29:31.859Z,25.98
2022-08-17T21:32:25.177Z,25.94
2022-08-17T21:35:23.493Z,25.97
2022-08-17T21:37:56.740Z,25.97
2022-08-17T21:40:27.853Z,25.93
2022-08-17T21:43:01.477Z,25.90
2022-08-17T21:45:35.082Z,25.85
2022-08-17T21:48:14.961Z,25.81
2022-08-17T21:50:57.201Z,25.75
2022-08-17T21:53:33.429Z,25.69
2022-08-17T21:56:02.214Z,25.62
2022-08-17T21:58:36.021Z,25.58
2022-08-17T22:01:21.060Z,25.55
2022-08-17T22:03:57.853Z,25.52
2022-08-17T22:06:29.713Z,25.47
2022-08-17T22:09:00.881Z,25.40
2022-08-17T22:11:29.420Z,25.38
2022-08-17T22:14:05.306Z,25.36
2022-08-17T22:16:34.856Z,25.32
2022-08-17T22:19:06.545Z,25.31
2022-08-17T22:21:35.023Z,25.28
2022-08-17T22:24:06.618Z,25.25
2022-08-17T22:27:02.768Z,25.23
2022-08-17T22:29:48.535Z,25.24
2022-08-17T22:32:38.644Z,25.22
2022-08-17T22:35:18.233Z,25.19
2022-08-17T22:37:46.742Z,25.14
2022-08-17T22:40:26.226Z,25.13
2022-08-17T22:42:54.733Z,25.11
2022-08-17T22:45:25.246Z,25.09
2022-08-17T22:47:56.540Z,25.07
2022-08-17T22:50:27.774Z,25.03
2022-08-17T22:53:19.782Z,24.98
2022-08-17T22:56:11.286Z,24.94
2022-08-17T22:59:06.569Z,24.91
2022-08-17T23:01:36.586Z,24.86
2022-08-17T23:04:08.169Z,24.84
2022-08-17T23:06:39.662Z,24.81
2022-08-17T23:09:08.717Z,24.79
2022-08-17T23:11:49.307Z,24.76
2022-08-17T23:14:20.785Z,24.75
2022-08-17T23:16:51.259Z,24.74
2022-08-17T23:19:22.432Z,24.78
2022-08-17T23:21:55.364Z,24.78
2022-08-17T23:24:27.445Z,24.78
2022-08-17T23:26:57.311Z,24.78
2022-08-17T23:29:26.291Z,24.76
2022-08-17T23:31:59.820Z,24.77
2022-08-17T23:34:29.283Z,24.74
2022-08-17T23:36:57.931Z,24.73
2022-08-17T23:39:28.010Z,24.70
2022-08-17T23:41:58.293Z,24.68
2022-08-17T23:44:26.980Z,24.67
2022-08-17T23:46:57.231Z,24.64
2022-08-17T23:49:26.158Z,24.63
2022-08-17T23:51:54.743Z,24.61
2022-08-17T23:54:27.995Z,24.59
2022-08-17T23:56:56.574Z,24.57
2022-08-17T23:59:26.970Z,24.55
